Date,TemperatureHighF,TemperatureAvgF,TemperatureLowF,DewpointHighF,DewpointAvgF,DewpointLowF,HumidityHigh,HumidityAvg,HumidityLow,PressureMaxIn,PressureMinIn,WindSpeedMaxMPH,WindSpeedAvgMPH,GustSpeedMaxMPH,PrecipitationSumIn
2013-1-1,43,36,30,38,33,28,95,91,81,0.00,40.00,3,1,8,0.01
2013-1-2,47,37,33,39,34,31,95,89,74,0.00,40.00,3,2,8,0.01
2013-1-3,44,36,29,42,34,27,97,90,73,0.00,40.00,5,2,19,0.56
2013-1-4,48,44,41,45,43,40,96,93,85,0.00,40.00,6,3,19,0.52
2013-1-5,49,42,38,41,39,37,96,90,65,0.00,40.00,6,2,16,0.40
2013-1-6,44,42,39,42,39,37,94,89,85,0.00,40.00,8,4,26,0.45
2013-1-7,48,45,38,47,43,37,97,95,90,0.00,40.00,7,3,19,1.04
2013-1-8,50,44,38,49,43,36,97,95,93,0.00,40.00,11,4,29,2.87
2013-1-9,45,40,34,44,38,32,96,92,79,0.00,40.00,3,1,15,1.71
2013-1-10,42,34,28,37,32,27,95,92,79,0.00,40.00,2,0,6,0.07
2013-1-11,40,30,24,33,26,19,95,86,43,0.00,40.00,4,0,8,0.01
2013-1-12,41,30,25,30,25,23,94,84,54,0.00,40.00,3,0,8,0.01
2013-1-13,35,29,23,31,27,21,94,90,84,0.00,40.00,1,0,3,0.00
2013-1-14,39,34,30,37,33,28,95,95,93,0.00,40.00,2,0,5,0.03
2013-1-15,46,34,27,39,32,26,96,90,69,0.00,40.00,3,0,6,0.01
2013-1-16,46,34,28,36,32,27,95,89,68,0.00,40.00,2,1,7,0.00
2013-1-17,51,35,27,41,32,26,95,88,69,0.00,40.00,3,1,7,0.00
2013-1-18,51,35,25,37,30,23,94,84,48,0.00,40.00,2,0,6,0.01
2013-1-19,53,35,26,38,31,24,95,85,55,0.00,40.00,3,0,7,0.01
2013-1-20,53,34,25,39,30,23,94,87,58,0.00,40.00,2,0,7,0.01
2013-1-21,55,35,27,38,30,25,94,84,50,0.00,40.00,3,1,7,0.01
2013-1-22,46,36,28,37,32,27,94,84,64,0.00,40.00,2,1,7,0.01
2013-1-23,46,43,36,43,41,35,96,93,85,0.00,40.00,6,2,16,0.99
2013-1-24,44,37,31,42,35,30,96,92,71,0.00,40.00,8,3,28,0.30
2013-1-25,49,44,38,42,40,37,96,87,72,0.00,40.00,7,3,22,0.14
2013-1-26,43,39,36,39,37,34,95,91,80,0.00,40.00,5,2,18,0.54
2013-1-27,39,38,36,37,36,35,96,94,92,0.00,40.00,4,1,9,0.85
2013-1-28,42,40,36,41,39,35,97,96,94,0.00,40.00,3,1,9,0.56
2013-1-29,46,44,42,45,43,41,97,96,94,0.00,40.00,4,2,13,0.60
2013-1-30,47,45,43,46,44,42,98,97,94,0.00,40.00,2,1,8,0.62
2013-1-31,49,46,43,48,44,42,97,95,92,0.00,40.00,5,2,16,0.39
2013-2-1,50,42,37,44,40,36,97,92,77,0.00,40.00,3,1,8,0.01
2013-2-2,58,42,35,44,38,34,97,86,57,0.00,40.00,2,1,9,0.01
2013-2-3,47,42,34,43,40,33,97,94,83,0.00,40.00,2,0,7,0.12
2013-2-4,47,44,40,41,40,39,97,89,79,0.00,40.00,6,2,16,0.06
2013-2-5,48,45,42,43,42,39,95,89,80,0.00,40.00,9,5,19,0.86
2013-2-6,44,42,40,40,40,38,93,90,87,0.00,40.00,6,4,18,0.76
2013-2-7,44,39,32,39,36,31,96,88,72,0.00,40.00,8,3,24,0.51
2013-2-8,45,36,28,39,34,27,96,90,75,0.00,40.00,3,1,7,0.01
2013-2-9,46,42,38,44,40,37,97,95,89,0.00,40.00,2,0,5,0.05
2013-2-10,46,40,31,41,37,30,97,91,75,0.00,40.00,2,1,6,0.01
2013-2-11,49,43,40,46,42,39,97,95,89,0.00,40.00,2,1,7,0.11
2013-2-12,47,44,41,45,43,40,98,96,91,0.00,40.00,6,2,13,0.34
2013-2-13,46,43,39,42,41,38,97,93,84,0.00,40.00,3,1,11,0.27
2013-2-14,51,45,38,48,43,37,98,93,85,0.00,40.00,3,1,8,0.11
2013-2-15,57,46,42,47,43,41,98,90,68,0.00,40.00,4,1,9,0.01
2013-2-16,46,43,41,44,41,38,98,93,84,0.00,40.00,7,2,18,0.31
2013-2-17,46,40,35,40,36,34,95,87,69,0.00,40.00,3,1,11,0.04
2013-2-18,42,38,34,38,36,33,96,91,83,0.00,40.00,5,2,15,0.42
2013-2-19,47,39,31,40,35,30,96,87,69,0.00,40.00,4,2,14,0.35
2013-2-20,42,38,31,39,36,30,97,93,87,0.00,40.00,4,1,13,0.23
2013-2-21,44,39,36,41,37,34,97,93,89,0.00,40.00,6,2,19,0.72
2013-2-22,47,40,34,45,38,33,96,92,78,0.00,40.00,8,4,23,1.99
2013-2-23,46,40,37,38,36,33,96,84,64,0.00,40.00,6,2,16,0.39
2013-2-24,44,41,38,42,39,35,95,92,85,0.00,40.00,8,6,23,1.33
2013-2-25,48,42,36,40,36,33,96,81,58,0.00,40.00,9,4,27,1.22
2013-2-26,42,38,34,38,36,33,95,89,81,0.00,40.00,7,4,18,0.65
2013-2-27,48,40,35,40,37,34,95,88,67,0.00,40.00,5,2,10,0.55
2013-2-28,49,44,39,48,43,37,97,95,92,0.00,40.00,6,3,17,1.20
2013-3-1,50,49,48,49,48,47,97,96,94,0.00,40.00,8,5,24,1.89
2013-3-2,48,44,35,47,43,34,97,96,92,0.00,40.00,6,2,17,1.63
2013-3-3,49,39,32,40,35,31,97,89,63,0.00,40.00,4,1,14,0.06
2013-3-4,50,38,29,37,33,28,96,82,56,0.00,40.00,5,2,12,0.01
2013-3-5,42,38,33,41,37,32,96,93,87,0.00,40.00,3,1,7,0.55
2013-3-6,44,39,32,42,38,31,98,95,88,0.00,40.00,2,0,5,0.17
2013-3-7,51,42,37,41,39,36,97,89,68,0.00,40.00,3,1,11,0.07
2013-3-8,53,40,31,39,35,30,97,84,59,0.00,40.00,5,1,11,0.01
2013-3-9,53,41,31,40,36,30,97,82,58,0.00,40.00,4,1,13,0.01
2013-3-10,46,43,39,43,40,37,96,91,84,0.00,40.00,1,0,4,0.16
2013-3-11,50,44,40,46,42,39,97,92,75,0.00,40.00,6,1,17,0.45
2013-3-12,49,48,47,48,47,46,96,95,95,0.00,40.00,6,5,22,3.44
2013-3-13,50,49,48,49,48,46,97,95,87,0.00,40.00,7,5,17,2.49
2013-3-14,50,48,47,47,46,44,95,91,87,0.00,40.00,7,4,18,0.94
2013-3-15,52,48,46,48,46,45,98,94,84,0.00,40.00,4,2,12,0.40
2013-3-16,46,42,37,45,41,36,98,94,82,0.00,40.00,6,2,17,0.50
2013-3-17,43,38,35,38,36,34,96,91,74,0.00,40.00,6,1,19,0.43
2013-3-18,49,41,33,39,35,31,96,82,53,0.00,40.00,6,2,16,0.36
2013-3-19,48,40,32,44,35,30,94,84,61,0.00,40.00,8,3,23,0.49
2013-3-20,49,43,36,47,41,32,96,90,67,0.00,40.00,9,5,26,1.87
2013-3-21,46,37,33,38,34,32,95,89,69,0.00,40.00,3,1,15,0.22
2013-3-22,48,37,30,37,31,27,95,80,47,0.00,40.00,5,2,13,0.11
2013-3-23,47,39,32,36,32,26,95,79,46,0.00,40.00,3,1,8,0.10
2013-3-24,54,43,37,39,35,31,91,75,42,0.00,40.00,4,2,14,0.00
2013-3-25,61,48,38,41,37,33,93,70,42,0.00,40.00,5,2,13,0.00
2013-3-26,56,47,42,46,42,38,95,83,64,0.00,40.00,3,1,9,0.00
2013-3-27,55,47,43,50,46,42,98,95,82,0.00,40.00,3,0,6,0.11
2013-3-28,57,52,46,51,48,45,98,89,73,0.00,40.00,2,1,8,0.42
2013-3-29,63,49,41,49,46,40,99,91,60,0.00,40.00,4,1,11,0.01
2013-3-30,69,50,35,47,39,-100,97,74,35,0.00,40.00,6,2,13,0.01
2013-3-31,74,53,44,47,41,39,91,66,30,0.00,40.00,5,2,12,0.00
2013-4-1,52,48,43,46,44,42,96,87,80,0.00,40.00,5,2,13,0.00
2013-4-2,53,48,45,44,42,40,94,81,71,0.00,40.00,5,2,15,0.00
2013-4-3,59,50,43,47,44,42,97,82,62,0.00,40.00,3,1,8,0.00
2013-4-4,54,50,48,53,48,45,97,92,86,0.00,40.00,9,3,21,1.02
2013-4-5,51,49,47,49,47,45,97,94,89,0.00,40.00,8,4,20,1.58
2013-4-6,51,47,43,46,43,38,96,88,61,0.00,40.00,6,3,17,1.53
2013-4-7,48,44,41,44,41,39,96,90,75,0.00,40.00,5,2,15,0.32
2013-4-8,54,46,42,45,42,40,95,85,70,0.00,40.00,6,2,13,0.01
2013-4-9,52,47,43,44,41,36,95,81,55,0.00,40.00,6,2,18,0.09
2013-4-10,50,47,44,48,44,41,96,89,72,0.00,40.00,7,5,21,1.45
2013-4-11,50,44,36,43,38,32,97,79,53,0.00,40.00,5,2,14,0.08
2013-4-12,42,38,33,40,36,31,95,92,79,0.00,40.00,6,3,18,0.79
2013-4-13,49,42,36,43,38,34,95,89,75,0.00,40.00,6,3,20,0.56
2013-4-14,51,42,39,41,39,37,95,87,65,0.00,40.00,4,2,12,0.27
2013-4-15,59,44,32,39,36,31,96,76,38,0.00,40.00,5,2,14,0.03
2013-4-16,63,47,33,40,31,23,97,63,22,0.00,40.00,5,2,18,0.00
2013-4-17,55,45,37,43,37,32,94,75,55,0.00,40.00,5,2,14,0.02
2013-4-18,50,46,41,48,44,39,97,93,81,0.00,40.00,6,3,16,0.76
2013-4-19,52,48,45,50,47,45,100,97,92,0.00,40.00,5,2,13,1.18
2013-4-20,51,46,42,47,45,41,100,96,86,0.00,40.00,4,2,12,0.15
2013-4-21,54,46,36,44,42,36,99,87,65,0.00,40.00,4,1,14,0.06
2013-4-22,63,46,32,41,29,9,100,64,14,0.00,40.00,6,2,17,0.01
2013-4-23,66,46,31,44,32,25,93,63,23,0.00,40.00,6,2,18,0.01
2013-4-24,70,51,36,40,34,30,89,57,24,0.00,40.00,7,2,15,0.00
2013-4-25,66,49,38,48,42,36,94,77,51,0.00,40.00,5,2,14,0.00
2013-4-26,63,50,42,47,43,38,99,79,40,0.00,40.00,4,2,12,0.00
2013-4-27,51,48,43,50,47,42,100,95,85,0.00,40.00,5,2,13,0.38
2013-4-28,54,48,43,48,44,40,100,89,58,0.00,40.00,5,2,16,0.84
2013-4-29,52,45,39,45,38,33,98,78,52,0.00,40.00,8,3,21,0.78
2013-4-30,57,46,36,37,33,31,93,63,37,0.00,40.00,7,2,16,0.02
2013-5-1,62,46,32,41,36,31,97,72,37,0.00,40.00,5,2,15,0.00
2013-5-2,67,49,36,42,37,20,95,67,21,0.00,40.00,5,1,13,0.00
2013-5-3,76,52,37,48,40,35,96,70,28,0.00,40.00,6,1,15,0.00
2013-5-4,81,60,43,47,36,21,91,55,12,0.00,40.00,8,2,19,0.00
2013-5-5,86,64,47,44,39,30,78,45,14,0.00,40.00,8,3,19,0.00
2013-5-6,69,57,48,53,47,41,100,69,49,0.00,40.00,4,1,13,0.00
2013-5-7,63,54,48,52,49,47,100,85,66,0.00,40.00,5,2,11,0.00
2013-5-8,65,54,45,51,48,45,99,82,59,0.00,40.00,4,2,10,0.00
2013-5-9,68,51,44,51,46,43,99,87,51,0.00,40.00,5,1,11,0.00
2013-5-10,69,50,43,52,43,-100,99,85,53,0.00,40.00,4,1,12,0.00
2013-5-11,68,54,47,58,49,-100,98,88,59,0.00,40.00,4,1,14,0.44
2013-5-12,62,57,54,58,55,53,99,94,80,0.00,40.00,5,2,15,1.03
2013-5-13,55,52,47,54,50,45,99,94,86,0.00,40.00,5,2,16,1.00
2013-5-14,63,52,45,48,45,43,99,79,49,0.00,40.00,4,1,12,0.13
2013-5-15,59,52,47,52,48,45,99,85,64,0.00,40.00,3,1,10,0.18
2013-5-16,62,51,51,56,34,-100,99,92,74,0.00,40.00,4,1,9,0.34
2013-5-17,60,54,50,52,47,-100,97,86,70,0.00,40.00,5,2,14,0.13
2013-5-18,60,53,49,51,49,48,99,87,68,0.00,40.00,3,2,12,0.20
2013-5-19,59,52,44,50,47,43,97,85,67,0.00,40.00,4,1,12,0.01
2013-5-20,55,48,43,47,45,43,99,88,70,0.00,40.00,5,1,12,0.28
2013-5-21,54,48,44,47,45,43,99,92,77,0.00,40.00,4,1,12,0.38
2013-5-22,58,50,45,48,45,42,98,85,61,0.00,40.00,3,1,9,0.14
2013-5-23,54,49,44,50,47,44,99,93,74,0.00,40.00,2,1,8,0.72
2013-5-24,58,49,40,49,46,40,100,87,71,0.00,40.00,4,1,10,0.07
2013-5-25,54,50,46,51,48,45,99,93,79,0.00,40.00,3,1,9,0.20
2013-5-26,58,52,48,54,50,47,99,93,83,0.00,40.00,4,2,12,0.25
2013-5-27,57,53,50,56,51,48,97,93,88,0.00,40.00,4,3,12,0.52
2013-5-28,57,52,49,51,49,46,97,92,79,0.00,40.00,5,3,16,0.43
2013-5-29,55,50,47,50,48,47,100,93,78,0.00,40.00,2,1,10,0.41
2013-5-30,57,51,46,53,48,46,99,90,76,0.00,40.00,5,2,12,0.43
2013-5-31,63,54,46,50,48,46,99,81,57,0.00,40.00,3,1,9,0.14
2013-6-1,66,56,48,51,48,46,99,77,51,0.00,40.00,4,1,9,0.02
2013-6-2,71,57,48,54,49,47,98,77,47,0.00,40.00,6,2,13,0.01
2013-6-3,66,56,47,51,49,46,98,79,53,0.00,40.00,4,2,15,0.00
2013-6-4,77,56,42,58,48,42,99,78,43,0.00,40.00,6,1,14,0.00
2013-6-5,67,57,50,55,52,49,98,84,63,0.00,40.00,4,2,12,0.00
2013-6-6,72,55,47,56,49,45,100,81,39,0.00,40.00,4,1,13,0.00
2013-6-7,60,54,47,55,50,46,95,85,72,0.00,40.00,4,2,12,0.02
2013-6-8,64,54,47,49,47,45,94,78,56,0.00,40.00,4,2,14,0.01
2013-6-9,61,54,47,48,45,42,94,75,55,0.00,40.00,4,2,15,0.00
2013-6-10,62,55,48,50,47,44,90,77,60,0.00,40.00,5,2,11,0.00
2013-6-11,62,53,48,50,48,46,97,85,58,0.00,40.00,4,2,14,0.30
2013-6-12,57,53,49,52,50,48,97,89,79,0.00,40.00,4,2,10,0.43
2013-6-13,64,54,47,51,49,47,99,82,62,0.00,40.00,5,2,14,0.03
2013-6-14,59,54,50,52,50,47,97,86,73,0.00,40.00,3,1,8,0.02
2013-6-15,75,53,44,55,48,44,99,85,49,0.00,40.00,3,0,10,0.01
2013-6-16,69,58,49,53,51,48,96,79,57,0.00,40.00,4,1,10,0.00
2013-6-17,70,57,47,54,51,47,99,82,53,0.00,40.00,4,1,13,0.16
2013-6-18,65,57,51,54,52,50,98,84,59,0.00,40.00,4,2,13,0.36
2013-6-19,68,57,45,52,50,45,99,79,52,0.00,40.00,4,1,13,0.04
2013-6-20,55,53,50,53,51,48,96,94,92,0.00,40.00,4,1,13,0.17
2013-6-22,74,66,54,56,54,52,93,66,51,0.00,40.00,3,2,8,0.02
2013-6-23,67,61,57,62,59,55,99,92,77,0.00,40.00,3,1,8,0.31
2013-6-24,63,59,55,59,55,52,99,87,70,0.00,40.00,5,2,11,0.32
2013-6-25,63,58,55,58,54,53,95,87,73,0.00,40.00,4,3,14,0.25
2013-6-26,66,60,54,58,55,53,98,85,71,0.00,40.00,6,3,16,0.47
2013-6-27,66,61,57,62,58,55,98,93,82,0.00,40.00,5,2,12,0.22
2013-6-28,74,64,56,65,60,56,100,87,68,0.00,40.00,3,1,9,0.02
2013-6-29,76,65,57,62,59,55,99,83,50,0.00,40.00,5,1,11,0.01
2013-6-30,75,62,54,62,57,54,99,83,54,0.00,40.00,3,1,9,0.00
2013-7-1,74,62,58,62,58,55,99,89,59,0.00,40.00,6,2,12,0.00
2013-7-2,74,62,52,57,54,49,93,77,50,0.00,40.00,5,2,14,0.00
2013-7-3,70,59,51,55,52,49,94,77,54,0.00,40.00,4,2,11,0.00
2013-7-4,68,61,56,54,52,51,89,74,57,0.00,40.00,5,2,13,0.00
2013-7-5,72,62,54,57,54,51,96,76,57,0.00,40.00,5,2,13,0.00
2013-7-6,72,58,54,58,53,51,97,86,52,0.00,40.00,5,1,12,0.00
2013-7-7,69,58,54,57,54,52,97,85,63,0.00,40.00,6,2,12,0.00
2013-7-8,71,57,53,57,53,52,98,89,62,0.00,40.00,4,1,11,0.00
2013-7-9,72,58,53,58,54,50,99,87,55,0.00,40.00,5,2,13,0.00
2013-7-10,64,57,52,52,48,-100,92,74,56,0.00,40.00,7,2,16,0.00
2013-7-11,67,57,50,52,49,45,95,75,45,0.00,40.00,5,2,16,0.00
2013-7-12,67,57,50,53,48,45,92,73,45,0.00,40.00,6,2,14,0.00
2013-7-13,71,55,50,54,48,44,92,76,51,0.00,40.00,6,2,12,0.00
2013-7-14,65,52,44,53,48,43,99,88,56,0.00,40.00,3,1,12,0.00
2013-7-15,78,49,44,52,46,43,98,94,29,0.00,40.00,6,0,17,0.00
2013-7-16,77,72,62,57,55,50,69,56,39,0.00,40.00,2,0,11,0.00
2013-7-17,67,61,57,57,54,52,89,80,65,0.00,40.00,4,2,14,0.01
2013-7-18,69,60,54,55,52,51,92,76,59,0.00,40.00,4,1,11,0.00
2013-7-19,66,57,53,55,53,51,97,88,67,0.00,40.00,4,1,10,0.00
2013-7-20,60,56,53,54,52,51,97,89,79,0.00,40.00,3,1,9,0.01
2013-7-21,67,57,53,58,54,51,96,89,69,0.00,40.00,4,2,12,0.01
2013-7-22,68,56,53,58,54,52,97,90,69,0.00,40.00,3,1,10,0.00
2013-7-23,66,55,52,56,52,51,99,92,68,0.00,40.00,5,1,11,0.00
2013-7-24,67,53,47,55,51,46,98,91,66,0.00,40.00,5,1,10,0.00
2013-7-25,66,55,50,56,51,48,98,89,62,0.00,40.00,4,2,8,0.00
2013-7-26,69,53,44,55,48,43,98,88,52,0.00,40.00,4,1,14,0.00
2013-7-27,70,55,51,55,51,49,97,86,59,0.00,40.00,3,1,9,0.00
2013-7-28,68,56,52,55,52,50,96,84,60,0.00,40.00,4,2,12,0.00
2013-7-29,69,57,53,55,52,51,96,84,60,0.00,40.00,4,1,10,0.00
2013-7-30,67,57,52,56,53,50,97,87,65,0.00,40.00,4,2,11,0.00
2013-7-31,67,57,53,56,53,51,98,89,69,0.00,40.00,3,1,13,0.01
2013-8-1,69,58,53,55,53,51,96,82,61,0.00,40.00,3,2,11,0.01
2013-8-2,64,60,56,57,54,52,92,83,72,0.00,40.00,3,2,11,0.01
2013-8-3,67,59,55,57,55,53,96,87,69,0.00,40.00,4,1,10,0.01
2013-8-4,69,56,54,58,54,52,99,94,67,0.00,40.00,2,0,8,0.00
2013-8-5,60,54,51,54,52,51,99,96,82,0.00,40.00,3,1,7,0.00
2013-8-6,66,53,49,55,51,48,99,93,68,0.00,40.00,3,1,8,0.00
2013-8-7,70,55,51,57,53,51,99,92,57,0.00,40.00,3,1,9,0.00
2013-8-8,72,60,56,58,56,55,99,89,55,0.00,40.00,6,1,12,0.00
2013-8-9,72,58,54,57,54,52,96,88,60,0.00,40.00,3,2,8,0.00
2013-8-10,67,59,55,57,55,53,98,86,68,0.00,40.00,5,2,10,0.00
2013-8-11,64,59,53,56,54,52,97,84,71,0.00,40.00,3,1,9,0.06
2013-8-12,65,58,52,55,53,51,98,85,67,0.00,40.00,3,1,8,0.01
2013-8-13,75,58,52,55,53,51,98,86,47,0.00,40.00,5,1,12,0.00
2013-8-14,73,60,52,61,54,-100,97,87,53,0.00,40.00,6,1,16,0.02
2013-8-15,69,59,59,62,48,-100,98,86,76,0.00,40.00,2,1,8,0.07
2013-8-16,74,61,53,59,54,-100,99,81,52,0.00,40.00,4,1,14,0.01
2013-8-17,68,62,55,60,56,-100,97,84,66,0.00,40.00,4,2,9,0.07
2013-8-18,70,60,52,59,55,51,98,83,51,0.00,40.00,4,1,11,0.01
2013-8-19,71,58,53,61,48,-100,96,80,46,0.00,40.00,4,2,12,0.06
2013-8-20,74,57,51,54,48,-100,95,77,43,0.00,40.00,5,2,14,0.04
2013-8-21,84,53,44,53,47,39,98,83,20,0.00,40.00,4,0,14,0.00
2013-8-22,76,57,47,57,50,44,92,79,40,0.00,40.00,3,1,10,0.00
2013-8-23,68,61,58,59,57,54,95,85,65,0.00,40.00,4,2,12,0.10
2013-8-24,67,60,53,57,54,-100,97,83,64,0.00,40.00,4,1,12,0.07
2013-8-25,70,56,46,53,49,45,98,81,44,0.00,40.00,4,1,11,0.00
2013-8-26,67,55,45,57,51,44,98,89,57,0.00,40.00,7,2,19,0.27
2013-8-27,67,60,57,59,57,56,97,91,74,0.00,40.00,4,2,12,0.28
2013-8-28,70,65,61,64,62,60,98,89,76,0.00,40.00,3,1,12,0.42
2013-8-29,65,62,60,63,61,59,98,95,89,0.00,40.00,7,2,16,1.41
2013-8-30,70,63,56,60,59,55,98,86,64,0.00,40.00,4,2,14,0.85
2013-8-31,79,59,51,59,53,-100,98,85,43,0.00,40.00,3,1,9,0.01
2013-9-1,72,61,53,60,56,52,98,84,59,0.00,40.00,4,1,11,0.00
2013-9-2,71,63,57,61,57,54,95,83,68,0.00,40.00,3,1,10,0.00
2013-9-3,74,60,50,58,54,49,98,83,53,0.00,40.00,4,1,12,0.00
2013-9-4,75,62,53,60,56,52,98,84,57,0.00,40.00,3,1,11,0.00
2013-9-5,76,60,54,62,56,53,99,89,59,0.00,40.00,4,1,10,0.01
2013-9-6,72,63,57,61,58,55,96,84,68,0.00,40.00,3,1,10,0.01
2013-9-7,74,64,57,61,57,-100,97,82,59,0.00,40.00,5,1,12,0.00
2013-9-8,70,60,53,62,57,52,98,89,75,0.00,40.00,3,1,9,0.00
2013-9-9,67,61,57,61,58,56,98,91,81,0.00,40.00,3,2,9,0.00
2013-9-10,82,61,52,56,55,51,98,81,37,0.00,40.00,4,1,8,0.00
2013-9-11,78,64,59,62,56,53,97,77,52,0.00,40.00,5,2,11,0.00
2013-9-12,68,62,58,60,58,57,98,90,76,0.00,40.00,4,1,10,0.00
2013-9-13,64,61,58,60,58,57,98,91,85,0.00,40.00,2,1,6,0.00
2013-9-14,67,60,57,60,56,-100,98,91,79,0.00,40.00,3,1,7,0.01
2013-9-15,61,59,57,60,58,56,99,97,91,0.00,40.00,2,0,6,0.13
2013-9-16,64,60,53,59,56,50,97,88,63,0.00,40.00,3,1,9,0.14
2013-9-17,66,56,49,55,51,48,99,86,61,0.00,40.00,5,1,12,0.03
2013-9-18,56,53,50,53,51,49,98,95,89,0.00,40.00,2,1,6,0.00
2013-9-19,77,59,49,53,49,44,96,72,31,0.00,40.00,4,1,11,0.00
2013-9-20,62,58,53,59,54,44,97,86,54,0.00,40.00,3,2,12,0.86
2013-9-21,66,57,52,57,53,-100,99,87,67,0.00,40.00,3,1,10,0.39
2013-9-22,61,56,53,57,53,50,96,90,78,0.00,40.00,7,3,26,1.82
2013-9-23,61,54,49,55,50,46,97,88,58,0.00,40.00,5,2,13,0.64
2013-9-24,59,50,46,51,48,45,98,92,72,0.00,40.00,4,2,9,0.87
2013-9-25,64,50,40,49,44,39,98,83,48,0.00,40.00,4,1,13,0.04
2013-9-26,67,52,40,52,46,39,98,81,50,0.00,40.00,4,1,10,0.00
2013-9-27,59,54,50,56,51,49,97,90,81,0.00,40.00,5,2,17,0.30
2013-9-28,58,52,50,55,49,-100,97,91,85,0.00,40.00,7,4,23,2.23
2013-9-29,55,52,50,53,49,43,97,91,72,0.00,40.00,10,4,35,2.71
2013-9-30,57,51,46,52,47,43,97,86,72,0.00,40.00,6,2,26,0.91
2013-10-1,52,51,50,51,50,49,98,97,94,0.00,40.00,2,1,10,1.26
2013-10-2,56,49,44,49,46,43,97,89,66,0.00,40.00,3,1,12,0.66
2013-10-3,56,47,37,46,43,36,98,87,65,0.00,40.00,3,1,9,0.03
2013-10-4,62,50,38,49,44,37,98,82,52,0.00,40.00,2,1,7,0.00
2013-10-5,71,56,48,54,49,46,97,79,48,0.00,40.00,4,1,9,0.00
2013-10-6,71,53,42,54,48,41,98,86,43,0.00,40.00,10,3,23,0.31
2013-10-7,58,53,50,53,50,47,97,92,74,0.00,40.00,6,2,13,1.06
2013-10-8,60,52,41,48,44,37,97,78,46,0.00,40.00,6,3,17,0.13
2013-10-9,60,48,37,47,42,36,97,84,55,0.00,40.00,4,1,10,0.01
2013-10-10,55,50,45,51,47,44,98,90,78,0.00,40.00,2,1,7,0.00
2013-10-11,56,49,41,48,45,40,98,87,61,0.00,40.00,2,1,6,0.00
2013-10-12,60,49,41,49,44,-100,98,86,58,0.00,40.00,3,1,12,0.05
2013-10-13,63,47,35,46,41,34,98,83,49,0.00,40.00,6,1,11,0.01
2013-10-14,64,48,36,50,43,35,98,85,52,0.00,40.00,3,1,9,0.00
2013-10-15,65,49,39,52,45,38,98,87,53,0.00,40.00,2,1,11,0.00
2013-10-16,64,49,41,51,46,40,98,90,63,0.00,40.00,3,1,10,0.00
2013-10-17,62,46,37,52,43,36,98,93,69,0.00,40.00,2,0,8,0.01
2013-10-18,64,44,36,52,42,35,98,94,64,0.00,40.00,1,0,7,0.01
2013-10-19,53,44,37,50,42,-100,98,95,89,0.00,40.00,3,1,8,0.00
2013-10-20,54,46,42,50,44,41,98,97,83,0.00,40.00,2,0,7,0.01
2013-10-21,60,44,36,53,42,35,98,95,79,0.00,40.00,2,0,6,0.00
2013-10-22,67,51,46,55,47,42,97,86,64,0.00,40.00,3,1,8,0.00
2013-10-23,60,48,39,52,46,38,98,93,76,0.00,40.00,2,1,7,0.01
2013-10-24,54,49,46,50,47,45,98,94,87,0.00,40.00,3,1,6,0.01
2013-10-25,62,52,44,51,47,43,97,87,57,0.00,40.00,3,1,9,0.01
2013-10-26,57,48,43,49,44,-100,98,88,66,0.00,40.00,3,1,10,0.01
2013-10-27,62,53,44,50,44,33,97,75,38,0.00,40.00,11,2,28,0.06
2013-10-28,58,54,44,33,25,-100,53,34,25,0.00,40.00,14,7,29,0.02
2013-10-29,60,44,32,37,33,30,92,67,33,0.00,40.00,4,1,8,0.00
2013-10-30,56,46,35,49,42,33,94,85,69,0.00,40.00,6,2,19,0.21
2013-10-31,59,53,50,53,50,47,96,91,75,0.00,40.00,8,2,19,0.25
2013-11-1,56,52,49,52,49,47,97,91,78,0.00,40.00,4,1,14,0.24
2013-11-2,51,48,43,49,43,-100,96,84,72,0.00,40.00,8,5,26,1.08
2013-11-3,51,43,35,41,37,33,97,81,51,0.00,40.00,4,1,14,0.02
2013-11-4,48,39,31,42,36,30,97,87,63,0.00,40.00,4,1,8,0.11
2013-11-5,51,46,39,49,44,38,98,95,82,0.00,40.00,4,1,9,0.25
2013-11-6,52,44,37,50,42,36,98,94,88,0.00,40.00,6,1,15,0.17
2013-11-7,53,49,46,51,47,44,96,93,90,0.00,40.00,9,4,29,2.16
2013-11-8,52,46,42,46,44,41,98,92,72,0.00,40.00,3,1,8,0.03
2013-11-9,49,43,39,46,40,-100,97,93,86,0.00,40.00,2,0,7,0.01
2013-11-10,51,45,41,44,42,40,95,88,77,0.00,40.00,3,1,8,0.00
2013-11-11,62,48,40,47,43,35,97,84,36,0.00,40.00,4,1,12,0.00
2013-11-12,62,54,52,52,49,36,95,86,39,0.00,40.00,8,4,23,1.08
2013-11-13,57,51,47,51,48,46,98,93,73,0.00,40.00,2,1,13,0.45
2013-11-14,51,46,39,46,44,38,98,94,75,0.00,40.00,5,1,9,0.11
2013-11-15,48,44,40,47,42,39,98,95,82,0.00,40.00,6,2,17,1.03
2013-11-16,46,43,41,39,36,-100,94,78,66,0.00,40.00,5,2,16,0.14
2013-11-17,50,45,41,46,43,38,96,91,82,0.00,40.00,6,2,13,0.37
2013-11-18,51,46,45,50,45,43,98,96,93,0.00,40.00,4,1,10,1.23
2013-11-19,47,40,27,45,35,23,98,84,49,0.00,40.00,4,1,13,0.45
2013-11-20,46,32,24,32,25,17,96,80,33,0.00,40.00,3,1,8,0.01
2013-11-21,46,31,23,30,26,21,95,81,46,0.00,40.00,3,0,8,0.01
2013-11-22,48,36,27,33,29,25,94,76,50,0.00,40.00,4,2,8,0.01
2013-11-23,54,41,30,38,32,-100,91,76,53,0.00,40.00,4,2,10,0.00
2013-11-24,59,39,32,41,34,30,96,84,45,0.00,40.00,2,1,7,0.00
2013-11-25,53,40,32,41,36,31,96,86,60,0.00,40.00,3,0,8,0.00
2013-11-26,52,41,31,43,36,29,96,83,57,0.00,40.00,4,1,13,0.00
2013-11-27,56,46,40,50,44,39,98,93,80,0.00,40.00,3,1,6,0.26
2013-11-28,57,45,36,46,42,35,98,90,64,0.00,40.00,3,0,6,0.08
2013-11-29,48,46,44,46,44,43,98,96,93,0.00,40.00,2,0,7,0.09
2013-11-30,49,47,45,48,44,-100,96,92,88,0.00,40.00,6,3,17,0.38
2013-12-1,51,48,39,50,46,36,98,95,88,0.00,40.00,7,3,20,1.28
2013-12-2,43,36,29,38,34,28,97,92,80,0.00,40.00,3,1,14,0.13
2013-12-3,41,34,26,29,19,12,97,58,30,0.00,40.00,9,4,21,0.01
2013-12-4,39,30,21,24,19,12,92,64,33,0.00,40.00,4,1,9,0.00
2013-12-5,32,28,21,30,25,18,96,88,77,0.00,40.00,1,0,6,0.02
2013-12-6,30,28,24,28,16,6,95,61,44,0.00,40.00,10,5,29,0.03
2013-12-7,32,23,15,9,3,-100,78,45,23,0.00,40.00,11,4,25,0.03
2013-12-8,37,26,13,24,18,9,90,75,54,0.00,40.00,3,1,6,0.00
2013-12-9,35,31,27,32,28,23,96,89,83,0.00,40.00,2,0,6,0.00
2013-12-10,39,35,32,37,34,30,97,95,91,0.00,40.00,1,0,5,0.03
2013-12-11,40,34,29,37,32,28,97,95,86,0.00,40.00,3,0,6,0.01
2013-12-12,45,40,30,44,38,29,97,92,73,0.00,40.00,8,3,23,0.39
2013-12-13,48,45,42,47,44,41,97,95,89,0.00,40.00,4,1,10,0.07
2013-12-14,47,45,44,45,42,-100,95,92,88,0.00,40.00,6,4,18,0.13
2013-12-15,51,46,39,49,45,38,97,95,91,0.00,40.00,5,2,18,0.31
2013-12-16,48,40,33,43,38,32,98,95,82,0.00,40.00,2,1,6,0.02
2013-12-17,45,38,31,44,38,31,98,97,95,0.00,40.00,3,1,10,0.12
2013-12-18,42,38,30,41,35,28,98,92,70,0.00,40.00,3,1,13,0.04
2013-12-19,37,33,26,31,29,24,96,86,75,0.00,40.00,2,1,7,0.01
2013-12-20,47,40,34,46,39,31,98,93,86,0.00,40.00,9,3,24,0.84
2013-12-21,46,44,43,44,42,-100,98,95,90,0.00,40.00,2,0,9,0.27
2013-12-22,49,46,44,48,45,42,98,96,92,0.00,40.00,3,1,9,0.28
2013-12-23,48,46,41,47,44,39,98,94,85,0.00,40.00,6,2,17,1.13
2013-12-24,44,39,31,41,37,30,98,94,71,0.00,40.00,3,1,8,0.05
2013-12-25,45,37,29,40,35,28,98,94,83,0.00,40.00,2,0,5,0.00
2013-12-26,52,42,38,45,40,37,98,93,76,0.00,40.00,3,1,5,0.00
2013-12-27,46,42,37,45,41,36,99,97,93,0.00,40.00,3,1,10,0.46
2013-12-28,46,42,38,42,39,-100,98,92,77,0.00,40.00,2,1,6,0.01
2013-12-29,46,41,36,42,39,35,98,94,82,0.00,40.00,2,0,6,0.00
2013-12-30,47,42,39,42,40,38,98,94,82,0.00,40.00,2,1,10,0.06
2013-12-31,47,45,43,45,43,42,98,96,92,0.00,40.00,3,1,10,0.07
2014-1-1,46,42,37,44,40,36,98,96,85,0.00,40.00,3,1,6,0.04
2014-1-2,49,44,37,45,43,36,98,94,81,0.00,40.00,6,3,18,1.25